sensor_id;sensor_type;location;lat;lon;timestamp;pressure;altitude;pressure_sealevel;temperature;humidity
39769;BME280;38939;47.824;14.642;2023-07-31T00:00:20;96956.13;;;18.70;86.61
39769;BME280;38939;47.824;14.642;2023-07-31T00:01:22;96963.75;;;18.66;86.58
39769;BME280;38939;47.824;14.642;2023-07-31T00:02:24;96962.16;;;18.65;86.66
39769;BME280;38939;47.824;14.642;2023-07-31T00:03:26;96962.94;;;18.66;86.75
39769;BME280;38939;47.824;14.642;2023-07-31T00:04:27;96963.75;;;18.66;86.70
39769;BME280;38939;47.824;14.642;2023-07-31T00:05:29;96968.00;;;18.67;86.75
39769;BME280;38939;47.824;14.642;2023-07-31T00:06:31;96955.56;;;18.68;87.01
39769;BME280;38939;47.824;14.642;2023-07-31T00:07:33;96948.19;;;18.70;86.69
39769;BME280;38939;47.824;14.642;2023-07-31T00:08:35;96945.53;;;18.70;86.87
39769;BME280;38939;47.824;14.642;2023-07-31T00:09:37;96940.81;;;18.72;86.89
39769;BME280;38939;47.824;14.642;2023-07-31T00:10:39;96942.91;;;18.70;86.75
39769;BME280;38939;47.824;14.642;2023-07-31T00:11:40;96944.75;;;18.69;86.85
39769;BME280;38939;47.824;14.642;2023-07-31T00:12:43;96948.97;;;18.70;86.75
39769;BME280;38939;47.824;14.642;2023-07-31T00:13:45;96947.16;;;18.71;86.83
39769;BME280;38939;47.824;14.642;2023-07-31T00:14:46;96947.94;;;18.71;86.80
39769;BME280;38939;47.824;14.642;2023-07-31T00:15:49;96947.69;;;18.73;86.75
39769;BME280;38939;47.824;14.642;2023-07-31T00:16:50;96931.28;;;18.71;86.97
39769;BME280;38939;47.824;14.642;2023-07-31T00:17:53;96935.75;;;18.70;87.07
39769;BME280;38939;47.824;14.642;2023-07-31T00:18:55;96943.97;;;18.69;87.14
39769;BME280;38939;47.824;14.642;2023-07-31T00:19:56;96949.75;;;18.66;87.24
39769;BME280;38939;47.824;14.642;2023-07-31T00:20:58;96951.28;;;18.62;87.24
39769;BME280;38939;47.824;14.642;2023-07-31T00:22:00;96951.53;;;18.60;87.45
39769;BME280;38939;47.824;14.642;2023-07-31T00:23:02;96954.19;;;18.60;87.08
39769;BME280;38939;47.824;14.642;2023-07-31T00:24:04;96947.84;;;18.61;87.08
39769;BME280;38939;47.824;14.642;2023-07-31T00:25:06;96953.94;;;18.62;87.12
39769;BME280;38939;47.824;14.642;2023-07-31T00:26:08;96956.34;;;18.63;87.01
39769;BME280;38939;47.824;14.642;2023-07-31T00:27:09;96957.38;;;18.62;87.25
39769;BME280;38939;47.824;14.642;2023-07-31T00:28:11;96958.19;;;18.63;87.18
39769;BME280;38939;47.824;14.642;2023-07-31T00:29:13;96957.13;;;18.64;87.16
39769;BME280;38939;47.824;14.642;2023-07-31T00:30:15;96956.34;;;18.63;87.06
39769;BME280;38939;47.824;14.642;2023-07-31T00:31:17;96957.91;;;18.64;87.24
39769;BME280;38939;47.824;14.642;2023-07-31T00:32:19;96951.28;;;18.62;86.84
39769;BME280;38939;47.824;14.642;2023-07-31T00:33:21;96947.63;;;18.63;86.68
39769;BME280;38939;47.824;14.642;2023-07-31T00:34:23;96949.19;;;18.64;86.86
39769;BME280;38939;47.824;14.642;2023-07-31T00:35:25;96946.31;;;18.65;86.94
39769;BME280;38939;47.824;14.642;2023-07-31T00:36:27;96943.13;;;18.63;86.94
39769;BME280;38939;47.824;14.642;2023-07-31T00:37:29;96948.66;;;18.62;86.83
39769;BME280;38939;47.824;14.642;2023-07-31T00:38:31;96951.28;;;18.62;86.97
39769;BME280;38939;47.824;14.642;2023-07-31T00:39:33;96947.84;;;18.61;86.75
39769;BME280;38939;47.824;14.642;2023-07-31T00:40:36;96946.00;;;18.62;86.83
39769;BME280;38939;47.824;14.642;2023-07-31T00:41:40;96945.22;;;18.61;86.90
39769;BME280;38939;47.824;14.642;2023-07-31T00:42:42;96945.75;;;18.63;86.75
39769;BME280;38939;47.824;14.642;2023-07-31T00:43:44;96946.56;;;18.64;86.84
39769;BME280;38939;47.824;14.642;2023-07-31T00:44:46;96946.31;;;18.65;86.73
39769;BME280;38939;47.824;14.642;2023-07-31T00:45:48;96943.66;;;18.65;86.52
39769;BME280;38939;47.824;14.642;2023-07-31T00:46:50;96944.22;;;18.67;86.67
39769;BME280;38939;47.824;14.642;2023-07-31T00:47:52;96943.41;;;18.67;87.05
39769;BME280;38939;47.824;14.642;2023-07-31T00:48:54;96946.56;;;18.64;87.35
39769;BME280;38939;47.824;14.642;2023-07-31T00:49:56;96943.38;;;18.62;87.67
39769;BME280;38939;47.824;14.642;2023-07-31T00:50:58;96944.97;;;18.63;87.68
39769;BME280;38939;47.824;14.642;2023-07-31T00:51:59;96944.44;;;18.61;87.39
39769;BME280;38939;47.824;14.642;2023-07-31T00:53:04;96939.38;;;18.59;87.38
39769;BME280;38939;47.824;14.642;2023-07-31T00:54:06;96939.38;;;18.59;87.21
39769;BME280;38939;47.824;14.642;2023-07-31T00:55:08;96929.59;;;18.59;87.32
39769;BME280;38939;47.824;14.642;2023-07-31T00:56:10;96928.56;;;18.61;87.45
39769;BME280;38939;47.824;14.642;2023-07-31T00:57:12;96927.50;;;18.62;87.32
39769;BME280;38939;47.824;14.642;2023-07-31T00:58:14;96944.97;;;18.63;87.33
39769;BME280;38939;47.824;14.642;2023-07-31T00:59:16;96943.38;;;18.62;87.24
39769;BME280;38939;47.824;14.642;2023-07-31T01:00:20;96950.25;;;18.63;87.40
39769;BME280;38939;47.824;14.642;2023-07-31T01:01:21;96938.63;;;18.64;87.10
39769;BME280;38939;47.824;14.642;2023-07-31T01:02:23;96952.63;;;18.64;87.29
39769;BME280;38939;47.824;14.642;2023-07-31T01:03:26;96946.00;;;18.62;87.25
39769;BME280;38939;47.824;14.642;2023-07-31T01:04:28;96953.16;;;18.61;87.25
39769;BME280;38939;47.824;14.642;2023-07-31T01:05:36;96951.81;;;18.58;87.32
39769;BME280;38939;47.824;14.642;2023-07-31T01:07:01;96947.31;;;18.59;87.30
39769;BME280;38939;47.824;14.642;2023-07-31T01:08:18;96949.16;;;18.58;87.38
39769;BME280;38939;47.824;14.642;2023-07-31T01:10:34;96945.97;;;18.56;87.23
39769;BME280;38939;47.824;14.642;2023-07-31T01:11:39;96952.28;;;18.50;87.33
39769;BME280;38939;47.824;14.642;2023-07-31T01:12:44;96950.66;;;18.49;87.39
39769;BME280;38939;47.824;14.642;2023-07-31T01:13:48;96954.63;;;18.52;87.53
39769;BME280;38939;47.824;14.642;2023-07-31T01:14:51;96952.81;;;18.52;87.46
39769;BME280;38939;47.824;14.642;2023-07-31T01:15:53;96948.88;;;18.55;87.47
39769;BME280;38939;47.824;14.642;2023-07-31T01:16:55;96953.91;;;18.56;87.25
39769;BME280;38939;47.824;14.642;2023-07-31T01:17:57;96947.56;;;18.57;87.30
39769;BME280;38939;47.824;14.642;2023-07-31T01:18:59;96945.47;;;18.59;87.24
39769;BME280;38939;47.824;14.642;2023-07-31T01:20:02;96939.16;;;18.61;87.15
39769;BME280;38939;47.824;14.642;2023-07-31T01:21:49;96941.50;;;18.62;87.05
39769;BME280;38939;47.824;14.642;2023-07-31T01:23:45;96934.41;;;18.63;86.94
39769;BME280;38939;47.824;14.642;2023-07-31T01:24:57;96938.06;;;18.62;87.00
39769;BME280;38939;47.824;14.642;2023-07-31T01:27:06;96940.69;;;18.56;86.89
39769;BME280;38939;47.824;14.642;2023-07-31T01:28:14;96935.66;;;18.55;87.09
39769;BME280;38939;47.824;14.642;2023-07-31T01:29:23;96929.31;;;18.56;87.10
39769;BME280;38939;47.824;14.642;2023-07-31T01:30:28;96932.78;;;18.56;86.73
39769;BME280;38939;47.824;14.642;2023-07-31T01:31:35;96932.50;;;18.58;86.62
39769;BME280;38939;47.824;14.642;2023-07-31T01:32:38;96934.09;;;18.59;86.55
39769;BME280;38939;47.824;14.642;2023-07-31T01:33:41;96932.50;;;18.58;86.69
39769;BME280;38939;47.824;14.642;2023-07-31T01:34:44;96936.19;;;18.57;86.85
39769;BME280;38939;47.824;14.642;2023-07-31T01:35:47;96930.13;;;18.56;86.99
39769;BME280;38939;47.824;14.642;2023-07-31T01:36:50;96929.03;;;18.52;87.32
39769;BME280;38939;47.824;14.642;2023-07-31T01:37:52;96926.88;;;18.49;87.09
39769;BME280;38939;47.824;14.642;2023-07-31T01:39:01;96923.94;;;18.46;87.43
39769;BME280;38939;47.824;14.642;2023-07-31T01:40:04;96927.34;;;18.41;87.87
39769;BME280;38939;47.824;14.642;2023-07-31T01:41:06;96927.34;;;18.41;87.42
39769;BME280;38939;47.824;14.642;2023-07-31T01:42:08;96928.94;;;18.42;87.24
39769;BME280;38939;47.824;14.642;2023-07-31T01:43:10;96925.25;;;18.43;87.19
39769;BME280;38939;47.824;14.642;2023-07-31T01:44:12;96922.59;;;18.43;86.99
39769;BME280;38939;47.824;14.642;2023-07-31T01:45:14;96911.25;;;18.43;87.11
39769;BME280;38939;47.824;14.642;2023-07-31T01:46:16;96925.25;;;18.43;87.16
39769;BME280;38939;47.824;14.642;2023-07-31T01:47:17;96924.94;;;18.39;86.94
39769;BME280;38939;47.824;14.642;2023-07-31T01:48:19;96925.75;;;18.40;86.95
39769;BME280;38939;47.824;14.642;2023-07-31T01:49:21;96922.31;;;18.39;86.90
39769;BME280;38939;47.824;14.642;2023-07-31T01:50:23;96929.44;;;18.39;86.81
39769;BME280;38939;47.824;14.642;2023-07-31T01:51:24;96936.56;;;18.38;86.91
39769;BME280;38939;47.824;14.642;2023-07-31T01:52:26;96933.16;;;18.38;86.77
39769;BME280;38939;47.824;14.642;2023-07-31T01:53:28;96939.22;;;18.38;86.96
39769;BME280;38939;47.824;14.642;2023-07-31T01:54:30;96936.34;;;18.40;86.79
39769;BME280;38939;47.824;14.642;2023-07-31T01:55:32;96935.28;;;18.41;86.86
39769;BME280;38939;47.824;14.642;2023-07-31T01:56:34;96924.69;;;18.41;86.88
39769;BME280;38939;47.824;14.642;2023-07-31T01:57:36;96932.38;;;18.43;86.80
39769;BME280;38939;47.824;14.642;2023-07-31T01:58:39;96925.25;;;18.43;86.84
39769;BME280;38939;47.824;14.642;2023-07-31T01:59:41;96928.44;;;18.45;86.73
39769;BME280;38939;47.824;14.642;2023-07-31T02:00:43;96917.88;;;18.45;86.41
39769;BME280;38939;47.824;14.642;2023-07-31T02:01:44;96917.06;;;18.45;86.42
39769;BME280;38939;47.824;14.642;2023-07-31T02:02:46;96920.75;;;18.44;86.42
39769;BME280;38939;47.824;14.642;2023-07-31T02:03:48;96922.59;;;18.43;86.58
39769;BME280;38939;47.824;14.642;2023-07-31T02:04:50;96919.97;;;18.43;86.37
39769;BME280;38939;47.824;14.642;2023-07-31T02:05:53;96917.31;;;18.43;86.40
39769;BME280;38939;47.824;14.642;2023-07-31T02:06:55;96917.56;;;18.42;86.80
39769;BME280;38939;47.824;14.642;2023-07-31T02:07:57;96922.84;;;18.42;86.66
39769;BME280;38939;47.824;14.642;2023-07-31T02:08:59;96919.41;;;18.41;86.49
39769;BME280;38939;47.824;14.642;2023-07-31T02:10:01;96926.56;;;18.41;86.54
39769;BME280;38939;47.824;14.642;2023-07-31T02:11:03;96927.59;;;18.39;86.42
39769;BME280;38939;47.824;14.642;2023-07-31T02:12:04;96922.00;;;18.36;86.84
39769;BME280;38939;47.824;14.642;2023-07-31T02:13:06;96923.56;;;18.32;86.75
39769;BME280;38939;47.824;14.642;2023-07-31T02:14:08;96923.28;;;18.28;86.59
39769;BME280;38939;47.824;14.642;2023-07-31T02:15:10;96926.41;;;18.25;86.73
39769;BME280;38939;47.824;14.642;2023-07-31T02:16:12;96928.50;;;18.23;86.88
39769;BME280;38939;47.824;14.642;2023-07-31T02:17:14;96925.56;;;18.19;87.23
39769;BME280;38939;47.824;14.642;2023-07-31T02:18:16;96921.56;;;18.17;87.01
39769;BME280;38939;47.824;14.642;2023-07-31T02:19:18;96914.44;;;18.17;86.94
39769;BME280;38939;47.824;14.642;2023-07-31T02:20:20;96907.81;;;18.15;87.18
39769;BME280;38939;47.824;14.642;2023-07-31T02:21:21;96916.53;;;18.15;87.25
39769;BME280;38939;47.824;14.642;2023-07-31T02:22:23;96911.81;;;18.17;86.81
39769;BME280;38939;47.824;14.642;2023-07-31T02:23:25;96911.81;;;18.17;86.71
39769;BME280;38939;47.824;14.642;2023-07-31T02:24:27;96917.09;;;18.17;87.06
39769;BME280;38939;47.824;14.642;2023-07-31T02:25:29;96918.16;;;18.16;87.28
39769;BME280;38939;47.824;14.642;2023-07-31T02:26:31;96921.78;;;18.10;87.66
39769;BME280;38939;47.824;14.642;2023-07-31T02:27:32;96919.38;;;18.09;87.48
39769;BME280;38939;47.824;14.642;2023-07-31T02:28:34;96927.31;;;18.09;87.34
39769;BME280;38939;47.824;14.642;2023-07-31T02:29:36;96929.16;;;18.08;87.19
39769;BME280;38939;47.824;14.642;2023-07-31T02:30:38;96923.88;;;18.08;87.09
39769;BME280;38939;47.824;14.642;2023-07-31T02:31:40;96917.00;;;18.07;87.30
39769;BME280;38939;47.824;14.642;2023-07-31T02:32:41;96918.59;;;18.08;87.14
39769;BME280;38939;47.824;14.642;2023-07-31T02:33:43;96923.88;;;18.08;87.00
39769;BME280;38939;47.824;14.642;2023-07-31T02:34:45;96919.63;;;18.07;86.95
39769;BME280;38939;47.824;14.642;2023-07-31T02:35:47;96914.31;;;18.02;86.96
39769;BME280;38939;47.824;14.642;2023-07-31T02:36:48;96915.59;;;17.99;87.04
39769;BME280;38939;47.824;14.642;2023-07-31T02:37:50;96917.69;;;17.97;87.27
39769;BME280;38939;47.824;14.642;2023-07-31T02:38:52;96910.31;;;17.99;87.10
39769;BME280;38939;47.824;14.642;2023-07-31T02:39:54;96909.53;;;17.99;86.92
39769;BME280;38939;47.824;14.642;2023-07-31T02:40:56;96912.16;;;17.99;86.79
39769;BME280;38939;47.824;14.642;2023-07-31T02:41:58;96920.06;;;17.99;87.08
39769;BME280;38939;47.824;14.642;2023-07-31T02:43:00;96921.94;;;17.98;86.69
39769;BME280;38939;47.824;14.642;2023-07-31T02:44:02;96914.78;;;17.99;86.71
39769;BME280;38939;47.824;14.642;2023-07-31T02:45:04;96913.50;;;18.02;86.61
39769;BME280;38939;47.824;14.642;2023-07-31T02:46:06;96910.06;;;18.01;86.64
39769;BME280;38939;47.824;14.642;2023-07-31T02:47:08;96909.81;;;18.03;86.41
39769;BME280;38939;47.824;14.642;2023-07-31T02:48:10;96913.50;;;18.02;86.53
39769;BME280;38939;47.824;14.642;2023-07-31T02:49:12;96916.97;;;18.02;86.40
39769;BME280;38939;47.824;14.642;2023-07-31T02:50:14;96915.84;;;17.98;86.67
39769;BME280;38939;47.824;14.642;2023-07-31T02:51:15;96924.03;;;17.96;86.52
39769;BME280;38939;47.824;14.642;2023-07-31T02:52:17;96916.09;;;17.96;86.54
39769;BME280;38939;47.824;14.642;2023-07-31T02:53:19;96915.31;;;17.96;86.24
39769;BME280;38939;47.824;14.642;2023-07-31T02:54:21;96913.47;;;17.96;86.57
39769;BME280;38939;47.824;14.642;2023-07-31T02:55:23;96913.22;;;17.98;86.07
39769;BME280;38939;47.824;14.642;2023-07-31T02:56:25;96910.56;;;17.98;86.22
39769;BME280;38939;47.824;14.642;2023-07-31T02:57:27;96915.03;;;17.97;86.16
39769;BME280;38939;47.824;14.642;2023-07-31T02:58:29;96911.31;;;17.93;86.86
39769;BME280;38939;47.824;14.642;2023-07-31T02:59:31;96911.03;;;17.90;86.92
39769;BME280;38939;47.824;14.642;2023-07-31T03:00:33;96916.31;;;17.90;87.07
39769;BME280;38939;47.824;14.642;2023-07-31T03:01:34;96913.13;;;17.88;87.00
39769;BME280;38939;47.824;14.642;2023-07-31T03:02:36;96913.13;;;17.88;86.89
39769;BME280;38939;47.824;14.642;2023-07-31T03:03:38;96913.91;;;17.88;86.74
39769;BME280;38939;47.824;14.642;2023-07-31T03:04:40;96913.91;;;17.88;86.61
39769;BME280;38939;47.824;14.642;2023-07-31T03:05:42;96917.34;;;17.89;86.56
39769;BME280;38939;47.824;14.642;2023-07-31T03:06:44;96915.75;;;17.88;86.50
39769;BME280;38939;47.824;14.642;2023-07-31T03:07:46;96917.56;;;17.87;86.36
39769;BME280;38939;47.824;14.642;2023-07-31T03:08:48;96915.22;;;17.86;86.31
39769;BME280;38939;47.824;14.642;2023-07-31T03:09:49;96918.28;;;17.83;86.35
39769;BME280;38939;47.824;14.642;2023-07-31T03:10:51;96923.56;;;17.83;86.53
39769;BME280;38939;47.824;14.642;2023-07-31T03:11:53;96913.59;;;17.85;86.13
39769;BME280;38939;47.824;14.642;2023-07-31T03:12:55;96912.56;;;17.86;86.05
39769;BME280;38939;47.824;14.642;2023-07-31T03:13:57;96919.66;;;17.85;86.22
39769;BME280;38939;47.824;14.642;2023-07-31T03:14:59;96920.94;;;17.83;86.28
39769;BME280;38939;47.824;14.642;2023-07-31T03:16:00;96922.47;;;17.78;86.73
39769;BME280;38939;47.824;14.642;2023-07-31T03:17:02;96934.09;;;17.77;86.48
39769;BME280;38939;47.824;14.642;2023-07-31T03:18:05;96930.41;;;17.78;86.25
39769;BME280;38939;47.824;14.642;2023-07-31T03:19:06;96933.59;;;17.80;86.35
39769;BME280;38939;47.824;14.642;2023-07-31T03:20:08;96926.47;;;17.81;86.07
39769;BME280;38939;47.824;14.642;2023-07-31T03:21:12;96933.81;;;17.79;86.22
39769;BME280;38939;47.824;14.642;2023-07-31T03:22:14;96935.44;;;17.80;86.36
39769;BME280;38939;47.824;14.642;2023-07-31T03:23:16;96929.38;;;17.79;86.35
39769;BME280;38939;47.824;14.642;2023-07-31T03:24:17;96934.66;;;17.79;86.26
39769;BME280;38939;47.824;14.642;2023-07-31T03:25:19;96942.28;;;17.81;86.24
39769;BME280;38939;47.824;14.642;2023-07-31T03:26:21;96935.19;;;17.82;86.28
39769;BME280;38939;47.824;14.642;2023-07-31T03:27:23;96942.06;;;17.83;85.96
39769;BME280;38939;47.824;14.642;2023-07-31T03:28:25;96934.13;;;17.83;85.79
39769;BME280;38939;47.824;14.642;2023-07-31T03:29:27;96941.06;;;17.84;85.81
39769;BME280;38939;47.824;14.642;2023-07-31T03:30:29;96935.78;;;17.84;85.78
39769;BME280;38939;47.824;14.642;2023-07-31T03:31:30;96938.41;;;17.84;85.78
39769;BME280;38939;47.824;14.642;2023-07-31T03:32:32;96937.59;;;17.83;85.60
39769;BME280;38939;47.824;14.642;2023-07-31T03:33:34;96929.91;;;17.82;85.56
39769;BME280;38939;47.824;14.642;2023-07-31T03:34:36;96932.00;;;17.79;85.70
39769;BME280;38939;47.824;14.642;2023-07-31T03:35:39;96927.22;;;17.76;85.54
39769;BME280;38939;47.824;14.642;2023-07-31T03:36:41;96922.16;;;17.75;85.51
39769;BME280;38939;47.824;14.642;2023-07-31T03:37:43;96932.72;;;17.75;85.76
39769;BME280;38939;47.824;14.642;2023-07-31T03:38:45;96925.63;;;17.75;85.34
39769;BME280;38939;47.824;14.642;2023-07-31T03:39:47;96926.66;;;17.74;85.38
39769;BME280;38939;47.824;14.642;2023-07-31T03:40:49;96924.50;;;17.71;85.59
39769;BME280;38939;47.824;14.642;2023-07-31T03:41:51;96920.28;;;17.70;85.42
39769;BME280;38939;47.824;14.642;2023-07-31T03:42:53;96923.72;;;17.71;85.38
39769;BME280;38939;47.824;14.642;2023-07-31T03:43:55;96926.34;;;17.71;84.95
39769;BME280;38939;47.824;14.642;2023-07-31T03:44:59;96923.16;;;17.69;84.91
39769;BME280;38939;47.824;14.642;2023-07-31T03:46:01;96924.22;;;17.68;85.28
39769;BME280;38939;47.824;14.642;2023-07-31T03:47:04;96919.66;;;17.63;84.89
39769;BME280;38939;47.824;14.642;2023-07-31T03:48:06;96920.72;;;17.62;85.19
39769;BME280;38939;47.824;14.642;2023-07-31T03:49:09;96928.06;;;17.60;85.39
39769;BME280;38939;47.824;14.642;2023-07-31T03:50:11;96923.28;;;17.57;85.12
39769;BME280;38939;47.824;14.642;2023-07-31T03:51:13;96932.00;;;17.57;84.96
39769;BME280;38939;47.824;14.642;2023-07-31T03:52:15;96930.94;;;17.58;84.98
39769;BME280;38939;47.824;14.642;2023-07-31T03:53:17;96930.16;;;17.58;84.99
39769;BME280;38939;47.824;14.642;2023-07-31T03:54:19;96936.47;;;17.57;84.63
39769;BME280;38939;47.824;14.642;2023-07-31T03:55:20;96938.06;;;17.58;84.77
39769;BME280;38939;47.824;14.642;2023-07-31T03:56:23;96938.06;;;17.58;84.62
39769;BME280;38939;47.824;14.642;2023-07-31T03:57:25;96935.69;;;17.56;84.57
39769;BME280;38939;47.824;14.642;2023-07-31T03:58:27;96932.72;;;17.53;84.74
39769;BME280;38939;47.824;14.642;2023-07-31T03:59:29;96930.03;;;17.48;84.57
39769;BME280;38939;47.824;14.642;2023-07-31T04:00:30;96932.69;;;17.48;84.63
39769;BME280;38939;47.824;14.642;2023-07-31T04:01:32;96936.34;;;17.47;84.62
39769;BME280;38939;47.824;14.642;2023-07-31T04:02:34;96932.59;;;17.43;84.57
39769;BME280;38939;47.824;14.642;2023-07-31T04:03:36;96938.94;;;17.42;84.71
39769;BME280;38939;47.824;14.642;2023-07-31T04:04:37;96938.84;;;17.36;84.75
39769;BME280;38939;47.824;14.642;2023-07-31T04:05:39;96936.78;;;17.38;84.81
39769;BME280;38939;47.824;14.642;2023-07-31T04:06:41;96936.78;;;17.38;85.04
39769;BME280;38939;47.824;14.642;2023-07-31T04:07:43;96936.78;;;17.38;84.82
39769;BME280;38939;47.824;14.642;2023-07-31T04:08:45;96938.06;;;17.36;84.90
39769;BME280;38939;47.824;14.642;2023-07-31T04:09:47;96932.56;;;17.37;84.91
39769;BME280;38939;47.824;14.642;2023-07-31T04:10:49;96937.00;;;17.37;84.81
39769;BME280;38939;47.824;14.642;2023-07-31T04:11:50;96932.78;;;17.36;84.62
39769;BME280;38939;47.824;14.642;2023-07-31T04:12:52;96929.59;;;17.34;84.58
39769;BME280;38939;47.824;14.642;2023-07-31T04:13:54;96930.91;;;17.31;84.73
39769;BME280;38939;47.824;14.642;2023-07-31T04:14:56;96932.44;;;17.27;84.45
39769;BME280;38939;47.824;14.642;2023-07-31T04:15:58;96927.38;;;17.26;84.55
39769;BME280;38939;47.824;14.642;2023-07-31T04:17:00;96929.47;;;17.24;84.48
39769;BME280;38939;47.824;14.642;2023-07-31T04:18:02;96926.59;;;17.25;84.54
39769;BME280;38939;47.824;14.642;2023-07-31T04:19:04;96934.75;;;17.24;84.53
39769;BME280;38939;47.824;14.642;2023-07-31T04:20:06;96926.28;;;17.22;84.35
39769;BME280;38939;47.824;14.642;2023-07-31T04:21:08;96930.75;;;17.21;84.32
39769;BME280;38939;47.824;14.642;2023-07-31T04:22:11;96932.56;;;17.20;84.25
39769;BME280;38939;47.824;14.642;2023-07-31T04:23:13;96932.34;;;17.22;84.13
39769;BME280;38939;47.824;14.642;2023-07-31T04:24:15;96927.06;;;17.22;84.09
39769;BME280;38939;47.824;14.642;2023-07-31T04:25:16;96930.25;;;17.24;84.14
39769;BME280;38939;47.824;14.642;2023-07-31T04:26:18;96928.41;;;17.25;84.39
39769;BME280;38939;47.824;14.642;2023-07-31T04:27:20;96923.41;;;17.23;84.37
39769;BME280;38939;47.824;14.642;2023-07-31T04:28:22;96933.94;;;17.23;84.44
39769;BME280;38939;47.824;14.642;2023-07-31T04:29:24;96929.47;;;17.24;84.53
39769;BME280;38939;47.824;14.642;2023-07-31T04:30:26;96925.78;;;17.25;84.24
39769;BME280;38939;47.824;14.642;2023-07-31T04:31:27;96924.50;;;17.27;84.30
39769;BME280;38939;47.824;14.642;2023-07-31T04:32:29;96924.75;;;17.26;84.27
39769;BME280;38939;47.824;14.642;2023-07-31T04:33:31;96923.97;;;17.25;84.34
39769;BME280;38939;47.824;14.642;2023-07-31T04:34:33;96922.91;;;17.26;84.15
39769;BME280;38939;47.824;14.642;2023-07-31T04:35:35;96927.38;;;17.26;84.05
39769;BME280;38939;47.824;14.642;2023-07-31T04:36:37;96933.41;;;17.21;84.08
39769;BME280;38939;47.824;14.642;2023-07-31T04:37:39;96933.41;;;17.21;84.16
39769;BME280;38939;47.824;14.642;2023-07-31T04:38:41;96933.13;;;17.23;84.07
39769;BME280;38939;47.824;14.642;2023-07-31T04:39:42;96931.31;;;17.23;84.16
39769;BME280;38939;47.824;14.642;2023-07-31T04:40:45;96936.09;;;17.26;84.38
39769;BME280;38939;47.824;14.642;2023-07-31T04:41:46;96931.88;;;17.25;84.72
39769;BME280;38939;47.824;14.642;2023-07-31T04:42:48;96935.28;;;17.26;84.71
39769;BME280;38939;47.824;14.642;2023-07-31T04:43:50;96936.59;;;17.23;84.78
39769;BME280;38939;47.824;14.642;2023-07-31T04:44:52;96931.56;;;17.22;84.67
39769;BME280;38939;47.824;14.642;2023-07-31T04:45:54;96934.97;;;17.22;84.74
39769;BME280;38939;47.824;14.642;2023-07-31T04:46:56;96934.97;;;17.22;84.43
39769;BME280;38939;47.824;14.642;2023-07-31T04:47:58;96938.41;;;17.23;84.61
39769;BME280;38939;47.824;14.642;2023-07-31T04:49:00;96951.84;;;17.21;84.59
39769;BME280;38939;47.824;14.642;2023-07-31T04:50:02;96941.53;;;17.19;84.40
39769;BME280;38939;47.824;14.642;2023-07-31T04:51:04;96945.47;;;17.17;84.78
39769;BME280;38939;47.824;14.642;2023-07-31T04:52:05;96944.41;;;17.18;84.55
39769;BME280;38939;47.824;14.642;2023-07-31T04:53:07;96948.91;;;17.17;84.45
39769;BME280;38939;47.824;14.642;2023-07-31T04:54:09;96939.38;;;17.16;84.51
39769;BME280;38939;47.824;14.642;2023-07-31T04:55:11;96940.44;;;17.15;84.53
39769;BME280;38939;47.824;14.642;2023-07-31T04:56:13;96938.59;;;17.16;84.36
39769;BME280;38939;47.824;14.642;2023-07-31T04:57:15;96945.94;;;17.14;84.50
39769;BME280;38939;47.824;14.642;2023-07-31T04:58:17;96944.59;;;17.11;84.33
39769;BME280;38939;47.824;14.642;2023-07-31T04:59:19;96946.44;;;17.11;84.37
39769;BME280;38939;47.824;14.642;2023-07-31T05:00:21;96946.44;;;17.11;84.49
39769;BME280;38939;47.824;14.642;2023-07-31T05:01:22;96952.50;;;17.11;84.31
39769;BME280;38939;47.824;14.642;2023-07-31T05:02:24;96946.44;;;17.11;84.11
39769;BME280;38939;47.824;14.642;2023-07-31T05:03:26;96948.81;;;17.12;84.49
39769;BME280;38939;47.824;14.642;2023-07-31T05:04:28;96953.84;;;17.14;84.39
39769;BME280;38939;47.824;14.642;2023-07-31T05:05:30;96956.50;;;17.14;84.17
39769;BME280;38939;47.824;14.642;2023-07-31T05:06:32;96958.09;;;17.15;84.67
39769;BME280;38939;47.824;14.642;2023-07-31T05:07:34;96953.84;;;17.14;84.70
39769;BME280;38939;47.824;14.642;2023-07-31T05:08:36;96955.69;;;17.13;84.51
39769;BME280;38939;47.824;14.642;2023-07-31T05:09:38;96948.34;;;17.15;84.79
39769;BME280;38939;47.824;14.642;2023-07-31T05:10:40;96956.03;;;17.17;84.87
39769;BME280;38939;47.824;14.642;2023-07-31T05:11:42;96953.84;;;17.14;85.02
39769;BME280;38939;47.824;14.642;2023-07-31T05:12:44;96954.34;;;17.11;85.32
39769;BME280;38939;47.824;14.642;2023-07-31T05:13:46;96953.78;;;17.09;85.31
39769;BME280;38939;47.824;14.642;2023-07-31T05:14:48;96962.41;;;17.04;85.42
39769;BME280;38939;47.824;14.642;2023-07-31T05:15:49;96957.38;;;17.03;85.32
39769;BME280;38939;47.824;14.642;2023-07-31T05:16:51;96958.75;;;17.05;85.37
39769;BME280;38939;47.824;14.642;2023-07-31T05:17:54;96957.47;;;17.08;85.33
39769;BME280;38939;47.824;14.642;2023-07-31T05:18:55;96950.34;;;17.08;85.35
39769;BME280;38939;47.824;14.642;2023-07-31T05:19:57;96953.53;;;17.10;85.21
39769;BME280;38939;47.824;14.642;2023-07-31T05:20:59;96953.28;;;17.12;85.38
39769;BME280;38939;47.824;14.642;2023-07-31T05:22:01;96949.63;;;17.13;85.56
39769;BME280;38939;47.824;14.642;2023-07-31T05:23:03;96948.03;;;17.12;85.70
39769;BME280;38939;47.824;14.642;2023-07-31T05:24:05;96958.81;;;17.10;85.74
39769;BME280;38939;47.824;14.642;2023-07-31T05:25:07;96955.88;;;17.07;85.83
39769;BME280;38939;47.824;14.642;2023-07-31T05:26:09;96961.38;;;17.05;86.02
39769;BME280;38939;47.824;14.642;2023-07-31T05:27:13;96959.31;;;17.07;85.99
39769;BME280;38939;47.824;14.642;2023-07-31T05:28:21;96963.53;;;17.08;85.85
39769;BME280;38939;47.824;14.642;2023-07-31T05:29:23;96961.22;;;17.12;85.62